createdAt,value
2023-03-12T00:02:04.545Z,2.73
2023-03-12T00:04:42.214Z,2.70
2023-03-12T00:07:13.386Z,3.10
2023-03-12T00:09:47.567Z,3.50
2023-03-12T00:12:16.105Z,2.63
2023-03-12T00:14:43.433Z,2.80
2023-03-12T00:17:11.649Z,3.30
2023-03-12T00:19:38.848Z,3.78
2023-03-12T00:25:01.865Z,3.95
2023-03-12T00:27:33.618Z,2.60
2023-03-12T00:30:09.803Z,4.05
2023-03-12T00:32:38.011Z,4.32
2023-03-12T00:35:12.150Z,4.47
2023-03-12T00:37:46.713Z,4.03
2023-03-12T00:40:30.195Z,3.90
2023-03-12T00:42:57.492Z,4.18
2023-03-12T00:45:25.580Z,4.13
2023-03-12T00:47:58.385Z,4.22
2023-03-12T00:50:42.917Z,4.43
2023-03-12T00:53:10.456Z,4.32
2023-03-12T00:55:41.041Z,3.80
2023-03-12T00:58:14.414Z,4.00
2023-03-12T01:00:49.251Z,3.85
2023-03-12T01:03:27.038Z,4.05
2023-03-12T01:05:57.862Z,3.60
2023-03-12T01:08:30.462Z,4.30
2023-03-12T01:11:00.603Z,3.60
2023-03-12T01:13:44.581Z,3.70
2023-03-12T01:16:15.499Z,3.53
2023-03-12T01:18:43.155Z,3.60
2023-03-12T01:21:11.543Z,3.20
2023-03-12T01:23:38.675Z,3.95
2023-03-12T01:26:07.063Z,3.63
2023-03-12T01:28:34.196Z,4.07
2023-03-12T01:31:11.233Z,3.40
2023-03-12T01:33:44.369Z,4.15
2023-03-12T01:36:24.978Z,4.15
2023-03-12T01:39:02.127Z,3.53
2023-03-12T01:41:41.534Z,3.83
2023-03-12T01:44:14.574Z,3.95
2023-03-12T01:46:44.799Z,3.42
2023-03-12T01:49:28.438Z,4.10
2023-03-12T01:52:31.827Z,3.45
2023-03-12T01:55:13.096Z,3.70
2023-03-12T01:57:52.460Z,4.03
2023-03-12T02:00:29.622Z,4.10
2023-03-12T02:03:05.167Z,3.60
2023-03-12T02:05:46.587Z,3.38
2023-03-12T02:08:15.976Z,3.60
2023-03-12T02:10:46.466Z,3.33
2023-03-12T02:13:17.401Z,3.78
2023-03-12T02:15:47.621Z,3.05
2023-03-12T02:18:24.087Z,3.17
2023-03-12T02:21:12.875Z,2.53
2023-03-12T02:24:27.105Z,2.80
2023-03-12T02:27:06.034Z,3.00
2023-03-12T02:29:40.458Z,2.50
2023-03-12T02:32:24.983Z,2.80
2023-03-12T02:35:16.782Z,3.17
2023-03-12T02:37:54.853Z,2.78
2023-03-12T02:40:44.400Z,3.13
2023-03-12T02:43:12.281Z,3.28
2023-03-12T02:45:40.096Z,2.80
2023-03-12T02:48:12.459Z,3.40
2023-03-12T02:50:41.645Z,3.10
2023-03-12T02:53:12.394Z,3.03
2023-03-12T02:55:41.052Z,3.38
2023-03-12T02:58:16.620Z,3.17
2023-03-12T03:00:45.136Z,3.28
2023-03-12T03:03:16.946Z,3.13
2023-03-12T03:05:44.219Z,2.90
2023-03-12T03:08:12.966Z,2.97
2023-03-12T03:10:40.379Z,2.40
2023-03-12T03:13:07.595Z,2.58
2023-03-12T03:15:35.242Z,2.78
2023-03-12T03:18:07.368Z,3.10
2023-03-12T03:20:38.104Z,3.00
2023-03-12T03:23:07.599Z,2.80
2023-03-12T03:25:34.801Z,2.88
2023-03-12T03:28:10.604Z,2.80
2023-03-12T03:30:41.639Z,2.40
2023-03-12T03:33:11.749Z,2.30
2023-03-12T03:35:39.292Z,2.70
2023-03-12T03:38:10.274Z,2.63
2023-03-12T03:40:38.953Z,2.40
2023-03-12T03:43:06.415Z,2.40
2023-03-12T03:45:34.644Z,2.60
2023-03-12T03:48:03.332Z,2.40
2023-03-12T03:50:31.901Z,2.10
2023-03-12T03:53:02.959Z,2.50
2023-03-12T03:55:32.080Z,2.13
2023-03-12T03:57:59.310Z,2.40
2023-03-12T04:00:31.508Z,2.33
2023-03-12T04:02:59.352Z,2.78
2023-03-12T04:05:26.458Z,2.13
2023-03-12T04:07:59.076Z,2.60
2023-03-12T04:10:29.036Z,2.58
2023-03-12T04:12:59.127Z,2.30
2023-03-12T04:15:28.848Z,2.30
2023-03-12T04:17:57.422Z,2.47
2023-03-12T04:23:03.612Z,2.33
2023-03-12T04:25:38.902Z,2.55
2023-03-12T04:28:07.241Z,2.35
2023-03-12T04:30:38.736Z,2.60
2023-03-12T04:33:08.414Z,2.33
2023-03-12T04:35:37.915Z,2.40
2023-03-12T04:38:08.146Z,2.45
2023-03-12T04:40:36.675Z,2.60
2023-03-12T04:45:50.642Z,2.42
2023-03-12T04:48:17.825Z,2.17
2023-03-12T04:50:48.646Z,2.20
2023-03-12T04:53:20.486Z,2.28
2023-03-12T04:55:53.738Z,2.42
2023-03-12T04:58:22.680Z,2.05
2023-03-12T05:00:55.203Z,2.05
2023-03-12T05:03:24.150Z,3.30
2023-03-12T05:05:54.437Z,2.35
2023-03-12T05:08:23.825Z,2.20
2023-03-12T05:10:51.242Z,2.00
2023-03-12T05:13:21.101Z,2.30
2023-03-12T05:15:50.786Z,2.20
2023-03-12T05:18:20.536Z,2.20
2023-03-12T05:20:57.327Z,2.20
2023-03-12T05:23:24.605Z,2.30
2023-03-12T05:25:51.596Z,2.22
2023-03-12T05:28:20.166Z,1.90
2023-03-12T05:30:47.310Z,2.00
2023-03-12T05:33:14.963Z,2.15
2023-03-12T05:35:42.058Z,2.35
2023-03-12T05:38:09.152Z,2.10
2023-03-12T05:40:36.117Z,1.95
2023-03-12T05:43:03.549Z,1.90
2023-03-12T05:45:30.684Z,1.92
2023-03-12T05:47:59.884Z,2.03
2023-03-12T05:50:28.679Z,2.08
2023-03-12T05:52:55.555Z,2.10
2023-03-12T05:55:22.460Z,2.28
2023-03-12T05:57:49.310Z,1.98
2023-03-12T06:00:16.738Z,1.85
2023-03-12T06:02:52.382Z,2.17
2023-03-12T06:05:20.820Z,2.30
2023-03-12T06:07:47.838Z,2.00
2023-03-12T06:10:15.218Z,2.10
2023-03-12T06:12:42.113Z,2.00
2023-03-12T06:15:10.100Z,1.90
2023-03-12T06:17:37.328Z,2.33
2023-03-12T06:20:04.753Z,2.30
2023-03-12T06:22:31.687Z,2.28
2023-03-12T06:24:59.943Z,1.98
2023-03-12T06:27:27.863Z,2.53
2023-03-12T06:29:54.730Z,2.22
2023-03-12T06:32:21.957Z,2.20
2023-03-12T06:34:49.038Z,2.90
2023-03-12T06:37:15.873Z,2.83
2023-03-12T06:39:43.291Z,2.22
2023-03-12T06:42:10.893Z,2.28
2023-03-12T06:44:38.151Z,2.50
2023-03-12T06:47:05.217Z,2.17
2023-03-12T06:49:33.343Z,2.50
2023-03-12T06:52:00.207Z,2.42
2023-03-12T06:54:29.489Z,2.88
2023-03-12T06:56:56.519Z,2.65
2023-03-12T06:59:23.378Z,3.00
2023-03-12T07:01:50.324Z,3.60
2023-03-12T07:04:17.746Z,2.65
2023-03-12T07:06:44.735Z,2.30
2023-03-12T07:09:11.601Z,2.40
2023-03-12T07:11:38.432Z,2.08
2023-03-12T07:14:05.310Z,2.22
2023-03-12T07:16:32.203Z,2.55
2023-03-12T07:18:59.113Z,2.38
2023-03-12T07:21:26.214Z,2.40
2023-03-12T07:23:53.756Z,2.40
2023-03-12T07:26:21.088Z,2.50
2023-03-12T07:28:49.414Z,2.90
2023-03-12T07:31:16.266Z,2.65
2023-03-12T07:33:43.214Z,3.20
2023-03-12T07:36:10.520Z,2.67
2023-03-12T07:38:37.435Z,2.63
2023-03-12T07:41:04.530Z,2.70
2023-03-12T07:43:31.613Z,2.05
2023-03-12T07:45:59.191Z,2.50
2023-03-12T07:48:26.306Z,2.22
2023-03-12T07:50:53.256Z,2.38
2023-03-12T07:53:20.211Z,2.15
2023-03-12T07:55:48.212Z,2.53
2023-03-12T07:58:37.024Z,1.95
2023-03-12T08:01:04.193Z,2.40
2023-03-12T08:03:33.574Z,1.90
2023-03-12T08:06:03.066Z,2.20
2023-03-12T08:08:31.433Z,2.20
2023-03-12T08:10:59.936Z,2.33
2023-03-12T08:13:26.878Z,2.00
2023-03-12T08:15:54.576Z,1.95
2023-03-12T08:18:22.134Z,2.08
2023-03-12T08:20:54.272Z,2.00
2023-03-12T08:23:22.250Z,2.05
2023-03-12T08:25:50.339Z,2.38
2023-03-12T08:28:26.012Z,2.17
2023-03-12T08:30:55.361Z,2.33
2023-03-12T08:33:22.690Z,2.35
2023-03-12T08:35:49.724Z,2.58
2023-03-12T08:38:16.744Z,2.72
2023-03-12T08:40:43.670Z,3.05
2023-03-12T08:43:10.974Z,2.95
2023-03-12T08:45:38.131Z,2.90
2023-03-12T08:48:06.900Z,3.13
2023-03-12T08:50:33.948Z,3.15
2023-03-12T08:53:00.908Z,3.33
2023-03-12T08:55:30.688Z,2.90
2023-03-12T08:57:57.668Z,2.60
2023-03-12T09:00:25.198Z,2.90
2023-03-12T09:02:53.672Z,3.00
2023-03-12T09:05:21.029Z,2.90
2023-03-12T09:07:50.011Z,3.00
2023-03-12T09:10:17.652Z,2.40
2023-03-12T09:12:45.147Z,2.47
2023-03-12T09:15:12.095Z,2.38
2023-03-12T09:17:39.338Z,2.47
2023-03-12T09:20:08.547Z,2.35
2023-03-12T09:22:39.306Z,2.30
2023-03-12T09:25:08.511Z,2.20
2023-03-12T09:27:46.572Z,2.00
2023-03-12T09:30:17.303Z,2.15
2023-03-12T09:32:47.556Z,1.90
2023-03-12T09:35:16.099Z,2.00
2023-03-12T09:37:43.089Z,1.83
2023-03-12T09:40:17.772Z,2.25
2023-03-12T09:42:50.079Z,2.10
2023-03-12T09:45:27.122Z,2.00
2023-03-12T09:48:13.398Z,2.20
2023-03-12T09:50:43.833Z,2.25
2023-03-12T09:53:41.230Z,2.22
2023-03-12T09:56:15.638Z,2.10
2023-03-12T09:58:44.562Z,2.03
2023-03-12T10:01:38.802Z,1.65
2023-03-12T10:04:17.773Z,2.10
2023-03-12T10:07:19.782Z,1.60
2023-03-12T10:16:02.925Z,1.50
2023-03-12T10:18:55.933Z,1.50
2023-03-12T10:21:48.942Z,1.55
2023-03-12T10:24:25.201Z,1.50
2023-03-12T10:26:56.071Z,1.60
2023-03-12T10:29:33.106Z,1.60
2023-03-12T10:32:11.086Z,1.60
2023-03-12T10:35:05.063Z,1.60
2023-03-12T10:37:39.190Z,1.50
2023-03-12T10:40:06.667Z,1.55
2023-03-12T10:42:33.737Z,1.70
2023-03-12T10:45:17.894Z,1.50
2023-03-12T10:47:48.824Z,1.40
2023-03-12T10:50:25.337Z,1.33
2023-03-12T10:53:11.437Z,1.70
2023-03-12T10:55:39.623Z,1.50
2023-03-12T10:58:06.592Z,1.80
2023-03-12T11:00:34.034Z,1.60
2023-03-12T11:03:20.477Z,1.77
2023-03-12T11:05:50.414Z,1.70
2023-03-12T11:08:29.412Z,1.65
2023-03-12T11:10:59.653Z,1.50
2023-03-12T11:13:39.740Z,1.70
2023-03-12T11:16:18.788Z,1.85
2023-03-12T11:19:03.744Z,1.85
2023-03-12T11:21:35.411Z,1.52
2023-03-12T11:24:09.653Z,2.03
2023-03-12T11:26:45.569Z,2.00
2023-03-12T11:29:24.115Z,1.80
2023-03-12T11:31:53.833Z,1.77
2023-03-12T11:34:31.231Z,1.77
2023-03-12T11:37:26.804Z,1.65
2023-03-12T11:40:26.990Z,2.00
2023-03-12T11:42:54.003Z,2.33
2023-03-12T11:45:45.704Z,1.88
2023-03-12T11:48:57.296Z,2.20
2023-03-12T11:51:46.460Z,2.22
2023-03-12T11:54:25.958Z,2.40
2023-03-12T11:57:10.357Z,2.10
2023-03-12T12:00:18.923Z,2.20
2023-03-12T12:03:19.456Z,2.42
2023-03-12T12:06:08.808Z,2.03
2023-03-12T12:08:47.133Z,1.88
2023-03-12T12:11:23.945Z,2.17
2023-03-12T12:14:05.114Z,2.33
2023-03-12T12:16:40.174Z,2.40
2023-03-12T12:19:46.176Z,2.03
2023-03-12T12:22:31.426Z,1.83
2023-03-12T12:25:26.047Z,2.30
2023-03-12T12:28:24.091Z,2.45
2023-03-12T12:31:06.224Z,2.00
2023-03-12T12:33:47.553Z,2.40
2023-03-12T12:36:17.060Z,2.50
2023-03-12T12:38:54.147Z,2.20
2023-03-12T12:41:29.705Z,2.25
2023-03-12T12:44:01.252Z,2.40
2023-03-12T12:46:39.960Z,2.20
2023-03-12T12:49:50.827Z,2.63
2023-03-12T12:52:22.259Z,2.00
2023-03-12T12:55:24.526Z,2.20
2023-03-12T12:58:04.977Z,2.30
2023-03-12T13:00:47.089Z,2.30
2023-03-12T13:03:23.633Z,2.28
2023-03-12T13:05:59.030Z,2.20
2023-03-12T13:08:43.318Z,2.65
2023-03-12T13:11:19.743Z,2.35
2023-03-12T13:14:02.882Z,2.17
2023-03-12T13:16:36.280Z,2.38
2023-03-12T13:19:15.161Z,2.50
2023-03-12T13:22:21.417Z,2.53
2023-03-12T13:24:51.968Z,2.17
2023-03-12T13:27:22.680Z,2.63
2023-03-12T13:29:56.287Z,2.80
2023-03-12T13:32:55.659Z,2.53
2023-03-12T13:35:22.568Z,2.45
2023-03-12T13:38:33.695Z,2.75
2023-03-12T13:41:02.257Z,2.45
2023-03-12T13:43:38.183Z,3.05
2023-03-12T13:46:07.177Z,2.63
2023-03-12T13:48:35.917Z,2.65
2023-03-12T13:51:17.381Z,2.78
2023-03-12T13:53:53.508Z,2.65
2023-03-12T13:56:28.207Z,3.10
2023-03-12T13:59:05.996Z,3.00
2023-03-12T14:01:39.222Z,2.95
2023-03-12T14:04:11.975Z,3.05
2023-03-12T14:07:16.859Z,3.08
2023-03-12T14:09:54.105Z,2.70
2023-03-12T14:12:40.594Z,2.50
2023-03-12T14:15:35.488Z,3.13
2023-03-12T14:18:11.773Z,2.97
2023-03-12T14:20:40.000Z,3.05
2023-03-12T14:23:13.246Z,2.78
2023-03-12T14:25:44.884Z,2.85
2023-03-12T14:28:21.982Z,3.60
2023-03-12T14:31:14.890Z,3.15
2023-03-12T14:33:55.784Z,2.97
2023-03-12T14:36:27.692Z,3.37
2023-03-12T14:39:01.070Z,2.80
2023-03-12T14:41:34.401Z,3.20
2023-03-12T14:44:23.892Z,3.00
2023-03-12T14:47:00.237Z,2.67
2023-03-12T14:49:29.904Z,3.03
2023-03-12T14:51:57.769Z,2.75
2023-03-12T14:54:27.712Z,2.60
2023-03-12T14:56:54.686Z,2.70
2023-03-12T14:59:29.062Z,3.15
2023-03-12T15:02:00.609Z,3.22
2023-03-12T15:04:28.908Z,2.80
2023-03-12T15:07:03.444Z,2.85
2023-03-12T15:09:34.870Z,2.92
2023-03-12T15:12:08.171Z,2.88
2023-03-12T15:14:44.378Z,3.42
2023-03-12T15:17:21.225Z,2.70
2023-03-12T15:19:54.693Z,2.97
2023-03-12T15:22:24.921Z,2.95
2023-03-12T15:24:52.203Z,2.85
2023-03-12T15:27:28.394Z,2.80
2023-03-12T15:29:57.778Z,2.85
2023-03-12T15:32:26.817Z,3.00
2023-03-12T15:34:56.540Z,2.80
2023-03-12T15:37:38.178Z,2.25
2023-03-12T15:40:16.612Z,2.67
2023-03-12T15:42:46.148Z,2.78
2023-03-12T15:45:44.560Z,2.88
2023-03-12T15:48:29.768Z,2.80
2023-03-12T15:50:56.824Z,2.55
2023-03-12T15:53:28.712Z,2.67
2023-03-12T15:56:03.661Z,3.00
2023-03-12T15:58:41.875Z,3.03
2023-03-12T16:01:14.066Z,3.20
2023-03-12T16:03:43.600Z,2.80
2023-03-12T16:06:18.891Z,2.45
2023-03-12T16:09:01.242Z,2.70
2023-03-12T16:11:33.775Z,3.17
2023-03-12T16:14:21.319Z,2.95
2023-03-12T16:16:48.358Z,3.47
2023-03-12T16:19:20.929Z,2.38
2023-03-12T16:21:48.539Z,2.33
2023-03-12T16:24:16.657Z,2.35
2023-03-12T16:26:52.866Z,2.33
2023-03-12T16:29:21.123Z,2.58
2023-03-12T16:31:57.003Z,2.50
2023-03-12T16:34:24.230Z,2.33
2023-03-12T16:36:51.791Z,2.65
2023-03-12T16:39:19.087Z,2.50
2023-03-12T16:41:47.183Z,2.53
2023-03-12T16:44:21.034Z,2.40
2023-03-12T16:46:48.008Z,2.35
2023-03-12T16:49:17.101Z,2.17
2023-03-12T16:51:44.145Z,2.47
2023-03-12T16:54:12.131Z,2.60
2023-03-12T16:56:42.972Z,2.13
2023-03-12T16:59:31.872Z,2.42
2023-03-12T17:01:58.813Z,2.63
2023-03-12T17:04:25.850Z,2.72
2023-03-12T17:06:52.777Z,2.35
2023-03-12T17:09:19.887Z,2.20
2023-03-12T17:11:50.500Z,2.25
2023-03-12T17:14:22.113Z,2.22
2023-03-12T17:19:16.859Z,2.15
2023-03-12T17:21:44.328Z,2.00
2023-03-12T17:24:14.131Z,1.80
2023-03-12T17:26:43.001Z,1.88
2023-03-12T17:29:24.013Z,2.25
2023-03-12T17:31:51.153Z,2.60
2023-03-12T17:34:20.651Z,2.20
2023-03-12T17:36:50.466Z,2.10
2023-03-12T17:39:21.282Z,2.33
2023-03-12T17:41:48.437Z,2.13
2023-03-12T17:44:16.022Z,2.10
2023-03-12T17:46:56.426Z,2.00
2023-03-12T17:49:27.942Z,2.20
2023-03-12T17:52:01.201Z,1.92
2023-03-12T17:54:28.451Z,2.50
2023-03-12T17:56:56.937Z,2.38
2023-03-12T17:59:25.621Z,2.50
2023-03-12T18:01:59.167Z,2.75
2023-03-12T18:04:27.645Z,2.78
2023-03-12T18:06:54.622Z,2.88
2023-03-12T18:09:21.632Z,2.95
2023-03-12T18:11:51.550Z,2.17
2023-03-12T18:14:18.680Z,2.60
2023-03-12T18:16:47.515Z,2.22
2023-03-12T18:19:14.669Z,2.10
2023-03-12T18:21:42.646Z,2.55
2023-03-12T18:24:13.970Z,2.72
2023-03-12T18:26:42.048Z,1.98
2023-03-12T18:29:08.889Z,2.10
2023-03-12T18:31:39.025Z,2.15
2023-03-12T18:34:06.056Z,2.35
2023-03-12T18:36:33.013Z,2.28
2023-03-12T18:39:04.544Z,2.20
2023-03-12T18:41:32.907Z,1.95
2023-03-12T18:44:00.439Z,2.28
2023-03-12T18:46:28.279Z,2.13
2023-03-12T18:48:55.280Z,3.25
2023-03-12T18:51:22.227Z,3.20
2023-03-12T18:53:49.406Z,3.63
2023-03-12T18:56:16.447Z,3.60
2023-03-12T18:58:43.909Z,2.83
2023-03-12T19:01:12.108Z,3.65
2023-03-12T19:03:40.137Z,3.55
2023-03-12T19:06:12.830Z,2.83
2023-03-12T19:08:40.335Z,3.58
2023-03-12T19:11:10.377Z,3.28
2023-03-12T19:13:37.270Z,4.20
2023-03-12T19:16:08.606Z,4.20
2023-03-12T19:18:36.970Z,4.28
2023-03-12T19:21:04.842Z,4.05
2023-03-12T19:23:31.948Z,3.88
2023-03-12T19:26:01.532Z,3.65
2023-03-12T19:28:28.838Z,4.50
2023-03-12T19:33:47.538Z,4.50
2023-03-12T19:36:15.702Z,4.38
2023-03-12T19:38:43.231Z,3.92
2023-03-12T19:41:12.286Z,3.88
2023-03-12T19:43:40.960Z,4.18
2023-03-12T19:46:09.303Z,4.43
2023-03-12T19:48:36.458Z,3.70
2023-03-12T19:51:11.868Z,4.50
2023-03-12T19:53:59.284Z,4.30
2023-03-12T19:56:27.833Z,4.60
2023-03-12T19:58:56.276Z,4.78
2023-03-12T20:01:44.655Z,5.43
2023-03-12T20:04:11.677Z,4.57
2023-03-12T20:06:44.126Z,4.28
2023-03-12T20:09:12.097Z,4.55
2023-03-12T20:11:41.284Z,5.60
2023-03-12T20:14:08.300Z,5.40
2023-03-12T20:16:35.279Z,4.95
2023-03-12T20:19:02.316Z,7.47
2023-03-12T20:21:30.710Z,6.93
2023-03-12T20:23:59.181Z,5.80
2023-03-12T20:26:26.392Z,5.68
2023-03-12T20:28:53.547Z,7.10
2023-03-12T20:31:21.013Z,7.50
2023-03-12T20:33:48.088Z,6.70
2023-03-12T20:36:15.107Z,7.65
2023-03-12T20:38:42.103Z,5.88
2023-03-12T20:41:14.444Z,6.60
2023-03-12T20:43:42.869Z,5.18
2023-03-12T20:46:10.426Z,4.30
2023-03-12T20:48:37.663Z,5.43
2023-03-12T20:51:07.476Z,4.95
2023-03-12T20:53:34.480Z,4.90
2023-03-12T20:56:01.862Z,4.88
2023-03-12T20:58:29.996Z,4.53
2023-03-12T21:00:59.778Z,5.22
2023-03-12T21:03:26.754Z,6.22
2023-03-12T21:05:59.329Z,5.28
2023-03-12T21:08:27.009Z,5.43
2023-03-12T21:10:54.292Z,5.07
2023-03-12T21:13:22.954Z,4.57
2023-03-12T21:15:50.319Z,6.10
2023-03-12T21:18:17.812Z,4.72
2023-03-12T21:20:45.479Z,4.97
2023-03-12T21:23:12.550Z,5.07
2023-03-12T21:25:40.927Z,4.45
2023-03-12T21:28:10.111Z,4.75
2023-03-12T21:30:37.653Z,5.00
2023-03-12T21:33:04.693Z,4.07
2023-03-12T21:35:31.700Z,4.10
2023-03-12T21:37:59.286Z,4.22
2023-03-12T21:40:26.165Z,5.50
2023-03-12T21:42:55.713Z,6.13
2023-03-12T21:45:22.906Z,5.78
2023-03-12T21:47:50.145Z,6.50
2023-03-12T21:50:18.338Z,5.70
2023-03-12T21:52:49.090Z,4.78
2023-03-12T21:55:17.200Z,4.10
2023-03-12T21:57:47.661Z,4.18
2023-03-12T22:00:16.200Z,5.05
2023-03-12T22:02:45.155Z,4.72
2023-03-12T22:05:13.957Z,4.93
2023-03-12T22:07:40.928Z,4.53
2023-03-12T22:10:12.154Z,4.20
2023-03-12T22:12:40.244Z,4.93
2023-03-12T22:15:09.731Z,5.03
2023-03-12T22:17:36.850Z,4.85
2023-03-12T22:20:03.988Z,5.68
2023-03-12T22:22:31.192Z,5.05
2023-03-12T22:24:58.535Z,5.47
2023-03-12T22:27:25.508Z,5.10
2023-03-12T22:29:53.095Z,4.45
2023-03-12T22:32:20.033Z,4.63
2023-03-12T22:34:49.507Z,4.28
2023-03-12T22:37:16.410Z,4.15
2023-03-12T22:39:43.359Z,4.40
2023-03-12T22:42:11.546Z,4.68
2023-03-12T22:44:41.287Z,4.13
2023-03-12T22:47:09.859Z,4.47
2023-03-12T22:49:38.220Z,4.40
2023-03-12T22:52:05.451Z,4.55
2023-03-12T22:54:33.508Z,4.35
2023-03-12T22:57:00.333Z,4.45
2023-03-12T22:59:27.721Z,4.40
2023-03-12T23:01:54.707Z,4.57
2023-03-12T23:04:21.822Z,5.45
2023-03-12T23:06:48.828Z,5.22
2023-03-12T23:09:15.783Z,4.30
2023-03-12T23:11:42.782Z,4.57
2023-03-12T23:14:09.786Z,5.05
2023-03-12T23:16:38.458Z,5.28
2023-03-12T23:19:05.553Z,4.55
2023-03-12T23:21:32.880Z,4.18
2023-03-12T23:24:00.321Z,4.70
2023-03-12T23:26:30.776Z,4.72
2023-03-12T23:28:59.024Z,4.18
2023-03-12T23:31:28.533Z,4.30
2023-03-12T23:33:56.935Z,4.25
2023-03-12T23:36:24.655Z,4.07
2023-03-12T23:38:51.679Z,4.63
2023-03-12T23:41:21.634Z,4.47
2023-03-12T23:43:48.925Z,4.10
2023-03-12T23:46:19.400Z,3.88
2023-03-12T23:48:47.040Z,4.55
2023-03-12T23:51:23.160Z,3.75
2023-03-12T23:53:53.052Z,3.53
2023-03-12T23:56:22.965Z,4.22
2023-03-12T23:58:51.253Z,3.80
